sensor_id;sensor_type;location;lat;lon;timestamp;temperature;humidity
41953;DHT22;63613;28.200;112.870;2023-03-12T00:00:15;21.00;77.30
41953;DHT22;63613;28.200;112.870;2023-03-12T00:02:42;21.00;77.60
41953;DHT22;63613;28.200;112.870;2023-03-12T00:05:09;21.00;77.40
41953;DHT22;63613;28.200;112.870;2023-03-12T00:07:36;21.10;77.40
41953;DHT22;63613;28.200;112.870;2023-03-12T00:10:04;21.00;77.00
41953;DHT22;63613;28.200;112.870;2023-03-12T00:12:31;21.00;77.20
41953;DHT22;63613;28.200;112.870;2023-03-12T00:14:58;21.00;77.40
41953;DHT22;63613;28.200;112.870;2023-03-12T00:17:45;21.00;77.40
41953;DHT22;63613;28.200;112.870;2023-03-12T00:20:12;21.00;77.50
41953;DHT22;63613;28.200;112.870;2023-03-12T00:22:39;21.00;77.00
41953;DHT22;63613;28.200;112.870;2023-03-12T00:25:10;21.00;77.30
41953;DHT22;63613;28.200;112.870;2023-03-12T00:27:37;21.00;77.50
41953;DHT22;63613;28.200;112.870;2023-03-12T00:30:05;21.00;77.50
41953;DHT22;63613;28.200;112.870;2023-03-12T00:32:33;20.90;77.60
41953;DHT22;63613;28.200;112.870;2023-03-12T00:35:19;21.00;77.40
41953;DHT22;63613;28.200;112.870;2023-03-12T00:37:46;21.00;73.10
41953;DHT22;63613;28.200;112.870;2023-03-12T00:40:13;21.10;73.30
41953;DHT22;63613;28.200;112.870;2023-03-12T00:42:40;21.10;74.70
41953;DHT22;63613;28.200;112.870;2023-03-12T00:45:07;21.00;75.10
41953;DHT22;63613;28.200;112.870;2023-03-12T00:47:34;21.00;75.50
41953;DHT22;63613;28.200;112.870;2023-03-12T00:50:01;21.00;75.70
41953;DHT22;63613;28.200;112.870;2023-03-12T00:52:28;21.00;75.70
41953;DHT22;63613;28.200;112.870;2023-03-12T00:54:54;21.00;76.00
41953;DHT22;63613;28.200;112.870;2023-03-12T00:57:24;21.00;76.20
41953;DHT22;63613;28.200;112.870;2023-03-12T00:59:51;21.00;76.20
41953;DHT22;63613;28.200;112.870;2023-03-12T01:06:14;21.10;76.50
41953;DHT22;63613;28.200;112.870;2023-03-12T01:08:41;21.20;76.30
41953;DHT22;63613;28.200;112.870;2023-03-12T01:11:16;21.20;76.10
41953;DHT22;63613;28.200;112.870;2023-03-12T01:13:43;21.30;75.70
41953;DHT22;63613;28.200;112.870;2023-03-12T01:16:10;21.30;75.80
41953;DHT22;63613;28.200;112.870;2023-03-12T01:18:37;21.30;74.90
41953;DHT22;63613;28.200;112.870;2023-03-12T01:21:05;21.30;75.60
41953;DHT22;63613;28.200;112.870;2023-03-12T01:23:32;21.30;74.80
41953;DHT22;63613;28.200;112.870;2023-03-12T01:26:03;21.40;75.10
41953;DHT22;63613;28.200;112.870;2023-03-12T01:28:30;21.40;75.00
41953;DHT22;63613;28.200;112.870;2023-03-12T01:30:57;21.40;75.20
41953;DHT22;63613;28.200;112.870;2023-03-12T01:33:23;21.40;75.00
41953;DHT22;63613;28.200;112.870;2023-03-12T01:35:50;21.40;75.20
41953;DHT22;63613;28.200;112.870;2023-03-12T01:38:17;21.50;74.80
41953;DHT22;63613;28.200;112.870;2023-03-12T01:40:45;21.50;75.00
41953;DHT22;63613;28.200;112.870;2023-03-12T01:43:26;21.50;75.00
41953;DHT22;63613;28.200;112.870;2023-03-12T01:46:04;21.60;75.10
41953;DHT22;63613;28.200;112.870;2023-03-12T01:48:39;21.60;74.80
41953;DHT22;63613;28.200;112.870;2023-03-12T01:51:09;21.60;74.90
41953;DHT22;63613;28.200;112.870;2023-03-12T01:53:38;21.60;74.70
41953;DHT22;63613;28.200;112.870;2023-03-12T01:56:06;21.60;74.50
41953;DHT22;63613;28.200;112.870;2023-03-12T01:58:36;21.70;74.20
41953;DHT22;63613;28.200;112.870;2023-03-12T02:01:03;21.70;73.90
41953;DHT22;63613;28.200;112.870;2023-03-12T02:03:31;21.70;74.20
41953;DHT22;63613;28.200;112.870;2023-03-12T02:06:12;21.70;74.20
41953;DHT22;63613;28.200;112.870;2023-03-12T02:08:42;21.80;74.30
41953;DHT22;63613;28.200;112.870;2023-03-12T02:11:13;21.70;73.70
41953;DHT22;63613;28.200;112.870;2023-03-12T02:13:40;21.70;74.10
41953;DHT22;63613;28.200;112.870;2023-03-12T02:16:08;21.70;73.80
41953;DHT22;63613;28.200;112.870;2023-03-12T02:18:36;21.70;73.70
41953;DHT22;63613;28.200;112.870;2023-03-12T02:21:25;21.80;73.50
41953;DHT22;63613;28.200;112.870;2023-03-12T02:26:24;21.80;73.50
41953;DHT22;63613;28.200;112.870;2023-03-12T02:28:52;21.80;73.70
41953;DHT22;63613;28.200;112.870;2023-03-12T02:31:24;21.80;73.40
41953;DHT22;63613;28.200;112.870;2023-03-12T02:33:52;21.80;73.70
41953;DHT22;63613;28.200;112.870;2023-03-12T02:36:21;21.80;73.20
41953;DHT22;63613;28.200;112.870;2023-03-12T02:38:50;21.80;73.70
41953;DHT22;63613;28.200;112.870;2023-03-12T02:41:46;21.70;73.70
41953;DHT22;63613;28.200;112.870;2023-03-12T02:44:27;21.70;73.60
41953;DHT22;63613;28.200;112.870;2023-03-12T02:47:00;21.70;73.20
41953;DHT22;63613;28.200;112.870;2023-03-12T02:49:30;21.70;71.00
41953;DHT22;63613;28.200;112.870;2023-03-12T02:51:57;21.70;71.50
41953;DHT22;63613;28.200;112.870;2023-03-12T02:54:24;21.70;72.10
41953;DHT22;63613;28.200;112.870;2023-03-12T02:56:52;21.80;72.20
41953;DHT22;63613;28.200;112.870;2023-03-12T02:59:20;21.80;72.50
41953;DHT22;63613;28.200;112.870;2023-03-12T03:01:52;21.80;73.00
41953;DHT22;63613;28.200;112.870;2023-03-12T03:04:19;21.80;73.60
41953;DHT22;63613;28.200;112.870;2023-03-12T03:06:46;21.80;74.30
41953;DHT22;63613;28.200;112.870;2023-03-12T03:09:14;21.80;74.70
41953;DHT22;63613;28.200;112.870;2023-03-12T03:11:41;21.90;75.40
41953;DHT22;63613;28.200;112.870;2023-03-12T03:14:09;21.90;76.00
41953;DHT22;63613;28.200;112.870;2023-03-12T03:16:36;22.00;76.90
41953;DHT22;63613;28.200;112.870;2023-03-12T03:19:03;22.10;77.70
41953;DHT22;63613;28.200;112.870;2023-03-12T03:21:31;22.20;78.20
41953;DHT22;63613;28.200;112.870;2023-03-12T03:24:01;22.30;78.90
41953;DHT22;63613;28.200;112.870;2023-03-12T03:26:28;22.40;79.50
41953;DHT22;63613;28.200;112.870;2023-03-12T03:28:55;22.60;80.10
41953;DHT22;63613;28.200;112.870;2023-03-12T03:31:22;22.70;80.30
41953;DHT22;63613;28.200;112.870;2023-03-12T03:33:49;22.80;80.30
41953;DHT22;63613;28.200;112.870;2023-03-12T03:36:16;22.90;80.10
41953;DHT22;63613;28.200;112.870;2023-03-12T03:38:44;23.00;80.10
41953;DHT22;63613;28.200;112.870;2023-03-12T03:41:19;23.10;79.60
41953;DHT22;63613;28.200;112.870;2023-03-12T03:44:06;23.20;79.50
41953;DHT22;63613;28.200;112.870;2023-03-12T03:46:33;23.30;79.30
41953;DHT22;63613;28.200;112.870;2023-03-12T03:49:03;23.50;78.90
41953;DHT22;63613;28.200;112.870;2023-03-12T03:51:31;23.60;77.90
41953;DHT22;63613;28.200;112.870;2023-03-12T03:53:59;23.70;77.20
41953;DHT22;63613;28.200;112.870;2023-03-12T03:56:27;23.70;77.20
41953;DHT22;63613;28.200;112.870;2023-03-12T03:58:54;23.80;76.80
41953;DHT22;63613;28.200;112.870;2023-03-12T04:01:21;23.90;76.30
41953;DHT22;63613;28.200;112.870;2023-03-12T04:03:48;24.00;75.90
41953;DHT22;63613;28.200;112.870;2023-03-12T04:06:15;24.10;75.40
41953;DHT22;63613;28.200;112.870;2023-03-12T04:08:42;24.20;75.20
41953;DHT22;63613;28.200;112.870;2023-03-12T04:11:13;24.20;75.10
41953;DHT22;63613;28.200;112.870;2023-03-12T04:13:41;24.30;75.10
41953;DHT22;63613;28.200;112.870;2023-03-12T04:16:09;24.30;74.80
41953;DHT22;63613;28.200;112.870;2023-03-12T04:18:36;24.40;74.40
41953;DHT22;63613;28.200;112.870;2023-03-12T04:21:05;24.60;73.50
41953;DHT22;63613;28.200;112.870;2023-03-12T04:23:33;24.60;72.90
41953;DHT22;63613;28.200;112.870;2023-03-12T04:26:20;24.80;72.10
41953;DHT22;63613;28.200;112.870;2023-03-12T04:28:46;24.80;70.80
41953;DHT22;63613;28.200;112.870;2023-03-12T04:31:13;24.80;71.30
41953;DHT22;63613;28.200;112.870;2023-03-12T04:33:41;24.80;70.30
41953;DHT22;63613;28.200;112.870;2023-03-12T04:36:08;25.00;69.90
41953;DHT22;63613;28.200;112.870;2023-03-12T04:38:35;25.10;68.70
41953;DHT22;63613;28.200;112.870;2023-03-12T04:41:06;25.10;69.20
41953;DHT22;63613;28.200;112.870;2023-03-12T04:43:34;25.10;69.20
41953;DHT22;63613;28.200;112.870;2023-03-12T04:46:01;25.20;69.50
41953;DHT22;63613;28.200;112.870;2023-03-12T04:48:28;25.20;69.50
41953;DHT22;63613;28.200;112.870;2023-03-12T04:50:57;25.20;69.20
41953;DHT22;63613;28.200;112.870;2023-03-12T04:53:24;25.30;68.60
41953;DHT22;63613;28.200;112.870;2023-03-12T04:55:51;25.30;63.10
41953;DHT22;63613;28.200;112.870;2023-03-12T04:58:21;25.30;61.90
41953;DHT22;63613;28.200;112.870;2023-03-12T05:00:50;25.30;59.90
41953;DHT22;63613;28.200;112.870;2023-03-12T05:03:22;25.30;60.50
41953;DHT22;63613;28.200;112.870;2023-03-12T05:05:49;25.20;60.80
41953;DHT22;63613;28.200;112.870;2023-03-12T05:08:16;25.20;63.50
41953;DHT22;63613;28.200;112.870;2023-03-12T05:10:43;25.10;65.60
41953;DHT22;63613;28.200;112.870;2023-03-12T05:13:21;24.90;67.10
41953;DHT22;63613;28.200;112.870;2023-03-12T05:15:48;24.90;67.90
41953;DHT22;63613;28.200;112.870;2023-03-12T05:18:15;24.80;69.30
41953;DHT22;63613;28.200;112.870;2023-03-12T05:20:46;24.80;70.40
41953;DHT22;63613;28.200;112.870;2023-03-12T05:23:12;24.70;71.00
41953;DHT22;63613;28.200;112.870;2023-03-12T05:26:00;24.70;71.60
41953;DHT22;63613;28.200;112.870;2023-03-12T05:28:29;24.60;72.10
41953;DHT22;63613;28.200;112.870;2023-03-12T05:30:58;24.50;70.70
41953;DHT22;63613;28.200;112.870;2023-03-12T05:33:32;24.50;71.00
41953;DHT22;63613;28.200;112.870;2023-03-12T05:35:59;24.50;71.60
41953;DHT22;63613;28.200;112.870;2023-03-12T05:38:25;24.50;70.40
41953;DHT22;63613;28.200;112.870;2023-03-12T05:40:57;24.40;70.40
41953;DHT22;63613;28.200;112.870;2023-03-12T05:43:27;24.50;69.90
41953;DHT22;63613;28.200;112.870;2023-03-12T05:46:00;24.40;70.20
41953;DHT22;63613;28.200;112.870;2023-03-12T05:48:31;24.40;70.80
41953;DHT22;63613;28.200;112.870;2023-03-12T05:50:58;24.40;71.20
41953;DHT22;63613;28.200;112.870;2023-03-12T05:53:25;24.50;72.10
41953;DHT22;63613;28.200;112.870;2023-03-12T05:55:52;24.40;72.50
41953;DHT22;63613;28.200;112.870;2023-03-12T05:58:21;24.40;72.30
41953;DHT22;63613;28.200;112.870;2023-03-12T06:00:47;24.40;73.10
41953;DHT22;63613;28.200;112.870;2023-03-12T06:03:15;24.40;73.10
41953;DHT22;63613;28.200;112.870;2023-03-12T06:05:45;24.40;73.10
41953;DHT22;63613;28.200;112.870;2023-03-12T06:08:13;24.50;73.00
41953;DHT22;63613;28.200;112.870;2023-03-12T06:10:40;24.50;72.90
41953;DHT22;63613;28.200;112.870;2023-03-12T06:13:07;24.50;73.00
41953;DHT22;63613;28.200;112.870;2023-03-12T06:15:36;24.50;73.20
41953;DHT22;63613;28.200;112.870;2023-03-12T06:18:06;24.50;73.70
41953;DHT22;63613;28.200;112.870;2023-03-12T06:20:36;24.50;73.90
41953;DHT22;63613;28.200;112.870;2023-03-12T06:23:03;24.50;74.50
41953;DHT22;63613;28.200;112.870;2023-03-12T06:25:30;24.50;74.60
41953;DHT22;63613;28.200;112.870;2023-03-12T06:27:57;24.40;73.30
41953;DHT22;63613;28.200;112.870;2023-03-12T06:30:26;24.40;73.00
41953;DHT22;63613;28.200;112.870;2023-03-12T06:32:53;24.40;72.20
41953;DHT22;63613;28.200;112.870;2023-03-12T06:35:20;24.40;71.60
41953;DHT22;63613;28.200;112.870;2023-03-12T06:37:47;24.40;71.10
41953;DHT22;63613;28.200;112.870;2023-03-12T06:40:14;24.40;71.00
41953;DHT22;63613;28.200;112.870;2023-03-12T06:42:42;24.40;70.60
41953;DHT22;63613;28.200;112.870;2023-03-12T06:45:09;24.40;70.80
41953;DHT22;63613;28.200;112.870;2023-03-12T06:47:39;24.50;70.60
41953;DHT22;63613;28.200;112.870;2023-03-12T06:50:27;24.50;70.90
41953;DHT22;63613;28.200;112.870;2023-03-12T06:52:55;24.40;70.10
41953;DHT22;63613;28.200;112.870;2023-03-12T06:55:22;24.40;70.30
41953;DHT22;63613;28.200;112.870;2023-03-12T06:57:49;24.40;71.10
41953;DHT22;63613;28.200;112.870;2023-03-12T07:00:36;24.40;71.60
41953;DHT22;63613;28.200;112.870;2023-03-12T07:03:04;24.40;71.30
41953;DHT22;63613;28.200;112.870;2023-03-12T07:05:31;24.40;72.10
41953;DHT22;63613;28.200;112.870;2023-03-12T07:07:58;24.40;71.60
41953;DHT22;63613;28.200;112.870;2023-03-12T07:10:27;24.40;70.40
41953;DHT22;63613;28.200;112.870;2023-03-12T07:13:15;24.40;69.90
41953;DHT22;63613;28.200;112.870;2023-03-12T07:15:42;24.40;69.00
41953;DHT22;63613;28.200;112.870;2023-03-12T07:18:15;24.40;68.60
41953;DHT22;63613;28.200;112.870;2023-03-12T07:20:43;24.40;68.10
41953;DHT22;63613;28.200;112.870;2023-03-12T07:23:14;24.40;67.90
41953;DHT22;63613;28.200;112.870;2023-03-12T07:25:42;24.30;69.30
41953;DHT22;63613;28.200;112.870;2023-03-12T07:28:10;24.30;69.80
41953;DHT22;63613;28.200;112.870;2023-03-12T07:30:38;24.30;70.10
41953;DHT22;63613;28.200;112.870;2023-03-12T07:33:08;24.20;70.40
41953;DHT22;63613;28.200;112.870;2023-03-12T07:35:37;24.20;70.50
41953;DHT22;63613;28.200;112.870;2023-03-12T07:38:06;24.20;70.90
41953;DHT22;63613;28.200;112.870;2023-03-12T07:40:35;24.20;71.10
41953;DHT22;63613;28.200;112.870;2023-03-12T07:43:03;24.20;71.40
41953;DHT22;63613;28.200;112.870;2023-03-12T07:45:37;24.30;71.30
41953;DHT22;63613;28.200;112.870;2023-03-12T07:48:05;24.30;71.30
41953;DHT22;63613;28.200;112.870;2023-03-12T07:50:32;24.30;70.50
41953;DHT22;63613;28.200;112.870;2023-03-12T07:53:03;24.30;70.50
41953;DHT22;63613;28.200;112.870;2023-03-12T07:55:32;24.30;69.80
41953;DHT22;63613;28.200;112.870;2023-03-12T07:57:59;24.20;70.50
41953;DHT22;63613;28.200;112.870;2023-03-12T08:00:46;24.20;70.80
41953;DHT22;63613;28.200;112.870;2023-03-12T08:03:13;24.20;70.40
41953;DHT22;63613;28.200;112.870;2023-03-12T08:06:01;24.20;70.70
41953;DHT22;63613;28.200;112.870;2023-03-12T08:08:29;24.20;70.80
41953;DHT22;63613;28.200;112.870;2023-03-12T08:10:58;24.20;70.70
41953;DHT22;63613;28.200;112.870;2023-03-12T08:13:25;24.10;70.10
41953;DHT22;63613;28.200;112.870;2023-03-12T08:15:55;24.10;69.80
41953;DHT22;63613;28.200;112.870;2023-03-12T08:18:22;24.00;69.50
41953;DHT22;63613;28.200;112.870;2023-03-12T08:20:51;24.00;69.80
41953;DHT22;63613;28.200;112.870;2023-03-12T08:23:20;24.00;70.20
41953;DHT22;63613;28.200;112.870;2023-03-12T08:25:49;24.00;69.70
41953;DHT22;63613;28.200;112.870;2023-03-12T08:28:17;24.00;69.60
41953;DHT22;63613;28.200;112.870;2023-03-12T08:30:51;23.90;69.90
41953;DHT22;63613;28.200;112.870;2023-03-12T08:33:40;23.90;70.20
41953;DHT22;63613;28.200;112.870;2023-03-12T08:36:09;23.90;70.20
41953;DHT22;63613;28.200;112.870;2023-03-12T08:38:36;23.80;70.30
41953;DHT22;63613;28.200;112.870;2023-03-12T08:41:05;23.80;70.00
41953;DHT22;63613;28.200;112.870;2023-03-12T08:43:32;23.80;70.10
41953;DHT22;63613;28.200;112.870;2023-03-12T08:46:01;23.70;70.30
41953;DHT22;63613;28.200;112.870;2023-03-12T08:48:29;23.70;69.90
41953;DHT22;63613;28.200;112.870;2023-03-12T08:50:58;23.60;69.90
41953;DHT22;63613;28.200;112.870;2023-03-12T08:53:26;23.60;69.80
41953;DHT22;63613;28.200;112.870;2023-03-12T08:55:54;23.50;69.50
41953;DHT22;63613;28.200;112.870;2023-03-12T08:58:22;23.50;69.70
41953;DHT22;63613;28.200;112.870;2023-03-12T09:00:51;23.40;69.50
41953;DHT22;63613;28.200;112.870;2023-03-12T09:03:18;23.40;69.80
41953;DHT22;63613;28.200;112.870;2023-03-12T09:05:47;23.30;70.10
41953;DHT22;63613;28.200;112.870;2023-03-12T09:08:14;23.30;69.60
41953;DHT22;63613;28.200;112.870;2023-03-12T09:10:47;23.30;69.30
41953;DHT22;63613;28.200;112.870;2023-03-12T09:13:15;23.20;69.20
41953;DHT22;63613;28.200;112.870;2023-03-12T09:15:43;23.20;69.70
41953;DHT22;63613;28.200;112.870;2023-03-12T09:18:12;23.20;68.50
41953;DHT22;63613;28.200;112.870;2023-03-12T09:20:41;23.10;68.60
41953;DHT22;63613;28.200;112.870;2023-03-12T09:23:10;23.10;69.30
41953;DHT22;63613;28.200;112.870;2023-03-12T09:25:37;23.10;68.50
41953;DHT22;63613;28.200;112.870;2023-03-12T09:28:03;23.00;68.20
41953;DHT22;63613;28.200;112.870;2023-03-12T09:30:30;23.00;67.70
41953;DHT22;63613;28.200;112.870;2023-03-12T09:33:01;22.90;67.80
41953;DHT22;63613;28.200;112.870;2023-03-12T09:35:28;22.90;67.80
41953;DHT22;63613;28.200;112.870;2023-03-12T09:37:57;22.90;68.20
41953;DHT22;63613;28.200;112.870;2023-03-12T09:40:26;22.90;68.60
41953;DHT22;63613;28.200;112.870;2023-03-12T09:45:45;22.80;68.20
41953;DHT22;63613;28.200;112.870;2023-03-12T09:48:32;22.80;68.80
41953;DHT22;63613;28.200;112.870;2023-03-12T09:51:08;22.80;69.00
41953;DHT22;63613;28.200;112.870;2023-03-12T09:54:02;22.80;68.50
41953;DHT22;63613;28.200;112.870;2023-03-12T09:56:30;22.70;68.30
41953;DHT22;63613;28.200;112.870;2023-03-12T09:58:57;22.70;68.80
41953;DHT22;63613;28.200;112.870;2023-03-12T10:02:12;22.70;68.40
41953;DHT22;63613;28.200;112.870;2023-03-12T10:04:40;22.70;68.60
41953;DHT22;63613;28.200;112.870;2023-03-12T10:07:18;22.60;67.90
41953;DHT22;63613;28.200;112.870;2023-03-12T10:15:35;22.60;68.50
41953;DHT22;63613;28.200;112.870;2023-03-12T10:24:23;22.50;68.60
41953;DHT22;63613;28.200;112.870;2023-03-12T10:26:57;22.30;67.90
41953;DHT22;63613;28.200;112.870;2023-03-12T10:29:35;22.30;67.10
41953;DHT22;63613;28.200;112.870;2023-03-12T10:32:40;22.30;67.10
41953;DHT22;63613;28.200;112.870;2023-03-12T10:35:19;22.30;66.90
41953;DHT22;63613;28.200;112.870;2023-03-12T10:37:59;22.30;66.10
41953;DHT22;63613;28.200;112.870;2023-03-12T10:40:31;22.20;66.50
41953;DHT22;63613;28.200;112.870;2023-03-12T10:43:00;22.30;66.00
41953;DHT22;63613;28.200;112.870;2023-03-12T10:49:26;22.30;64.70
41953;DHT22;63613;28.200;112.870;2023-03-12T10:51:56;22.20;64.40
41953;DHT22;63613;28.200;112.870;2023-03-12T10:54:44;22.20;64.60
41953;DHT22;63613;28.200;112.870;2023-03-12T10:57:12;22.20;65.20
41953;DHT22;63613;28.200;112.870;2023-03-12T10:59:42;22.20;64.80
41953;DHT22;63613;28.200;112.870;2023-03-12T11:02:29;22.10;65.50
41953;DHT22;63613;28.200;112.870;2023-03-12T11:04:57;22.10;64.30
41953;DHT22;63613;28.200;112.870;2023-03-12T11:07:50;22.10;64.10
41953;DHT22;63613;28.200;112.870;2023-03-12T11:10:21;22.10;63.60
41953;DHT22;63613;28.200;112.870;2023-03-12T11:13:04;22.10;64.10
41953;DHT22;63613;28.200;112.870;2023-03-12T11:15:39;22.00;63.60
41953;DHT22;63613;28.200;112.870;2023-03-12T11:18:25;22.00;64.40
41953;DHT22;63613;28.200;112.870;2023-03-12T11:20:55;22.00;65.30
41953;DHT22;63613;28.200;112.870;2023-03-12T11:23:25;21.90;65.50
41953;DHT22;63613;28.200;112.870;2023-03-12T11:26:02;21.90;65.80
41953;DHT22;63613;28.200;112.870;2023-03-12T11:34:25;21.80;66.20
41953;DHT22;63613;28.200;112.870;2023-03-12T11:37:10;21.80;66.20
41953;DHT22;63613;28.200;112.870;2023-03-12T11:43:00;21.80;66.50
41953;DHT22;63613;28.200;112.870;2023-03-12T11:45:49;21.80;66.60
41953;DHT22;63613;28.200;112.870;2023-03-12T11:53:41;21.80;66.40
41953;DHT22;63613;28.200;112.870;2023-03-12T11:56:21;21.80;66.10
41953;DHT22;63613;28.200;112.870;2023-03-12T12:01:44;21.80;66.20
41953;DHT22;63613;28.200;112.870;2023-03-12T12:04:51;21.80;66.30
41953;DHT22;63613;28.200;112.870;2023-03-12T12:07:39;21.70;66.50
41953;DHT22;63613;28.200;112.870;2023-03-12T12:13:49;21.70;66.50
41953;DHT22;63613;28.200;112.870;2023-03-12T12:28:26;21.70;66.10
41953;DHT22;63613;28.200;112.870;2023-03-12T12:36:38;21.60;66.50
41953;DHT22;63613;28.200;112.870;2023-03-12T12:39:32;21.60;66.20
41953;DHT22;63613;28.200;112.870;2023-03-12T12:42:03;21.60;66.70
41953;DHT22;63613;28.200;112.870;2023-03-12T12:44:35;21.60;66.60
41953;DHT22;63613;28.200;112.870;2023-03-12T12:47:08;21.60;66.60
41953;DHT22;63613;28.200;112.870;2023-03-12T12:49:49;21.60;66.50
41953;DHT22;63613;28.200;112.870;2023-03-12T12:52:20;21.60;66.70
41953;DHT22;63613;28.200;112.870;2023-03-12T12:55:14;21.60;66.40
41953;DHT22;63613;28.200;112.870;2023-03-12T12:57:58;21.60;66.70
41953;DHT22;63613;28.200;112.870;2023-03-12T13:00:45;21.60;66.60
41953;DHT22;63613;28.200;112.870;2023-03-12T13:03:18;21.60;66.40
41953;DHT22;63613;28.200;112.870;2023-03-12T13:05:57;21.60;66.70
41953;DHT22;63613;28.200;112.870;2023-03-12T13:11:23;21.60;66.50
41953;DHT22;63613;28.200;112.870;2023-03-12T13:14:13;21.50;66.60
41953;DHT22;63613;28.200;112.870;2023-03-12T13:16:47;21.50;66.70
41953;DHT22;63613;28.200;112.870;2023-03-12T13:24:56;21.50;66.20
41953;DHT22;63613;28.200;112.870;2023-03-12T13:27:37;21.40;66.30
41953;DHT22;63613;28.200;112.870;2023-03-12T13:35:37;21.40;66.40
41953;DHT22;63613;28.200;112.870;2023-03-12T13:38:10;21.40;66.20
41953;DHT22;63613;28.200;112.870;2023-03-12T13:41:00;21.30;66.00
41953;DHT22;63613;28.200;112.870;2023-03-12T13:43:46;21.30;66.00
41953;DHT22;63613;28.200;112.870;2023-03-12T13:46:34;21.30;65.90
41953;DHT22;63613;28.200;112.870;2023-03-12T13:49:13;21.30;65.40
41953;DHT22;63613;28.200;112.870;2023-03-12T13:51:46;21.30;65.30
41953;DHT22;63613;28.200;112.870;2023-03-12T13:54:18;21.30;65.40
41953;DHT22;63613;28.200;112.870;2023-03-12T13:56:57;21.30;65.50
41953;DHT22;63613;28.200;112.870;2023-03-12T13:59:26;21.30;65.30
41953;DHT22;63613;28.200;112.870;2023-03-12T14:01:57;21.30;65.30
41953;DHT22;63613;28.200;112.870;2023-03-12T14:04:37;21.30;65.20
41953;DHT22;63613;28.200;112.870;2023-03-12T14:17:45;21.30;64.90
41953;DHT22;63613;28.200;112.870;2023-03-12T14:20:20;21.30;64.40
41953;DHT22;63613;28.200;112.870;2023-03-12T14:22:58;21.30;64.60
41953;DHT22;63613;28.200;112.870;2023-03-12T14:25:42;21.30;64.80
41953;DHT22;63613;28.200;112.870;2023-03-12T14:28:22;21.30;64.80
41953;DHT22;63613;28.200;112.870;2023-03-12T14:31:09;21.30;64.50
41953;DHT22;63613;28.200;112.870;2023-03-12T14:33:57;21.30;64.30
41953;DHT22;63613;28.200;112.870;2023-03-12T14:42:26;21.30;64.20
41953;DHT22;63613;28.200;112.870;2023-03-12T14:47:45;21.30;64.00
41953;DHT22;63613;28.200;112.870;2023-03-12T14:52:53;21.30;64.60
41953;DHT22;63613;28.200;112.870;2023-03-12T14:55:24;21.30;64.60
41953;DHT22;63613;28.200;112.870;2023-03-12T14:58:17;21.30;64.80
41953;DHT22;63613;28.200;112.870;2023-03-12T15:01:01;21.20;64.40
41953;DHT22;63613;28.200;112.870;2023-03-12T15:03:29;21.30;64.10
41953;DHT22;63613;28.200;112.870;2023-03-12T15:05:57;21.30;64.10
41953;DHT22;63613;28.200;112.870;2023-03-12T15:08:24;21.30;64.30
41953;DHT22;63613;28.200;112.870;2023-03-12T15:10:54;21.30;64.30
41953;DHT22;63613;28.200;112.870;2023-03-12T15:13:25;21.20;63.90
41953;DHT22;63613;28.200;112.870;2023-03-12T15:15:53;21.20;63.90
41953;DHT22;63613;28.200;112.870;2023-03-12T15:18:28;21.20;64.00
41953;DHT22;63613;28.200;112.870;2023-03-12T15:20:56;21.20;64.20
41953;DHT22;63613;28.200;112.870;2023-03-12T15:23:25;21.20;63.90
41953;DHT22;63613;28.200;112.870;2023-03-12T15:26:31;21.30;63.70
41953;DHT22;63613;28.200;112.870;2023-03-12T15:29:42;21.10;63.40
41953;DHT22;63613;28.200;112.870;2023-03-12T15:31:55;21.20;62.00
41953;DHT22;63613;28.200;112.870;2023-03-12T15:37:01;21.10;60.40
41953;DHT22;63613;28.200;112.870;2023-03-12T15:39:33;21.10;60.90
41953;DHT22;63613;28.200;112.870;2023-03-12T15:42:15;21.10;61.30
41953;DHT22;63613;28.200;112.870;2023-03-12T15:44:59;21.10;61.40
41953;DHT22;63613;28.200;112.870;2023-03-12T15:47:32;21.10;61.20
41953;DHT22;63613;28.200;112.870;2023-03-12T15:56:34;21.10;60.90
41953;DHT22;63613;28.200;112.870;2023-03-12T15:59:23;21.10;60.50
41953;DHT22;63613;28.200;112.870;2023-03-12T16:01:52;21.00;60.10
41953;DHT22;63613;28.200;112.870;2023-03-12T16:07:13;21.00;60.00
41953;DHT22;63613;28.200;112.870;2023-03-12T16:09:41;21.00;59.10
41953;DHT22;63613;28.200;112.870;2023-03-12T16:12:08;21.00;59.40
41953;DHT22;63613;28.200;112.870;2023-03-12T16:14:36;21.00;59.10
41953;DHT22;63613;28.200;112.870;2023-03-12T16:17:05;21.00;59.10
41953;DHT22;63613;28.200;112.870;2023-03-12T16:19:35;20.90;58.80
41953;DHT22;63613;28.200;112.870;2023-03-12T16:22:03;21.00;58.50
41953;DHT22;63613;28.200;112.870;2023-03-12T16:24:30;20.90;58.30
41953;DHT22;63613;28.200;112.870;2023-03-12T16:26:58;20.90;58.00
41953;DHT22;63613;28.200;112.870;2023-03-12T16:29:34;20.90;57.50
41953;DHT22;63613;28.200;112.870;2023-03-12T16:32:12;20.90;57.50
41953;DHT22;63613;28.200;112.870;2023-03-12T16:34:40;20.90;57.50
41953;DHT22;63613;28.200;112.870;2023-03-12T16:37:11;20.90;57.80
41953;DHT22;63613;28.200;112.870;2023-03-12T16:39:39;20.90;57.40
41953;DHT22;63613;28.200;112.870;2023-03-12T16:42:15;20.90;57.10
41953;DHT22;63613;28.200;112.870;2023-03-12T16:44:43;20.90;57.10
41953;DHT22;63613;28.200;112.870;2023-03-12T16:47:15;20.80;57.00
41953;DHT22;63613;28.200;112.870;2023-03-12T16:49:43;20.80;56.80
41953;DHT22;63613;28.200;112.870;2023-03-12T16:52:17;20.90;56.60
41953;DHT22;63613;28.200;112.870;2023-03-12T16:54:44;20.80;56.60
41953;DHT22;63613;28.200;112.870;2023-03-12T16:57:36;20.80;56.70
41953;DHT22;63613;28.200;112.870;2023-03-12T17:00:07;20.80;56.10
41953;DHT22;63613;28.200;112.870;2023-03-12T17:02:38;20.80;56.00
41953;DHT22;63613;28.200;112.870;2023-03-12T17:05:05;20.80;56.40
41953;DHT22;63613;28.200;112.870;2023-03-12T17:07:32;20.80;56.70
41953;DHT22;63613;28.200;112.870;2023-03-12T17:10:01;20.80;57.20
41953;DHT22;63613;28.200;112.870;2023-03-12T17:12:30;20.70;57.30
41953;DHT22;63613;28.200;112.870;2023-03-12T17:15:27;20.80;57.60
41953;DHT22;63613;28.200;112.870;2023-03-12T17:17:59;20.80;57.50
41953;DHT22;63613;28.200;112.870;2023-03-12T17:20:30;20.80;57.30
41953;DHT22;63613;28.200;112.870;2023-03-12T17:23:02;20.70;56.60